createdAt,value
2022-12-17T00:00:00.738Z,13.23
2022-12-17T00:02:47.916Z,13.30
2022-12-17T00:05:33.692Z,14.00
2022-12-17T00:08:19.042Z,14.33
2022-12-17T00:11:04.802Z,15.87
2022-12-17T00:13:49.951Z,16.33
2022-12-17T00:16:36.173Z,13.23
2022-12-17T00:19:22.987Z,12.13
2022-12-17T00:22:07.242Z,14.93
2022-12-17T00:25:07.148Z,13.57
2022-12-17T00:27:53.080Z,13.03
2022-12-17T00:30:44.481Z,15.27
2022-12-17T00:33:31.050Z,12.67
2022-12-17T00:36:19.009Z,11.27
2022-12-17T00:39:04.849Z,12.67
2022-12-17T00:41:50.522Z,11.47
2022-12-17T00:44:35.740Z,12.30
2022-12-17T00:47:21.850Z,12.43
2022-12-17T00:50:07.838Z,14.70
2022-12-17T00:52:54.901Z,13.77
2022-12-17T00:55:41.675Z,13.63
2022-12-17T00:58:30.125Z,11.13
2022-12-17T01:01:17.624Z,10.33
2022-12-17T01:04:11.472Z,11.47
2022-12-17T01:06:57.905Z,10.10
2022-12-17T01:09:44.835Z,11.27
2022-12-17T01:12:30.699Z,11.67
2022-12-17T01:15:16.157Z,13.17
2022-12-17T01:18:02.376Z,11.00
2022-12-17T01:20:56.150Z,12.97
2022-12-17T01:23:42.431Z,12.47
2022-12-17T01:26:29.041Z,11.13
2022-12-17T01:29:15.723Z,10.87
2022-12-17T01:32:01.257Z,11.23
2022-12-17T01:34:46.604Z,11.03
2022-12-17T01:37:32.861Z,10.20
2022-12-17T01:40:18.477Z,11.73
2022-12-17T01:43:06.398Z,10.90
2022-12-17T01:46:02.899Z,11.97
2022-12-17T01:48:53.001Z,12.20
2022-12-17T01:51:38.413Z,11.80
2022-12-17T01:54:33.268Z,12.10
2022-12-17T01:57:20.435Z,11.73
2022-12-17T02:00:24.242Z,10.70
2022-12-17T02:03:10.087Z,10.33
2022-12-17T02:06:03.200Z,11.37
2022-12-17T02:08:57.676Z,10.37
2022-12-17T02:11:57.292Z,9.67
2022-12-17T02:14:52.197Z,11.57
2022-12-17T02:17:43.247Z,11.50
2022-12-17T02:20:41.287Z,10.03
2022-12-17T02:23:51.672Z,10.23
2022-12-17T02:26:48.259Z,11.67
2022-12-17T02:29:35.377Z,10.80
2022-12-17T02:32:22.965Z,11.37
2022-12-17T02:35:10.157Z,11.80
2022-12-17T02:37:56.940Z,11.53
2022-12-17T02:40:43.742Z,10.70
2022-12-17T02:43:30.456Z,11.93
2022-12-17T02:46:16.267Z,11.37
2022-12-17T02:49:02.231Z,11.30
2022-12-17T02:51:50.565Z,11.37
2022-12-17T02:54:38.932Z,12.57
2022-12-17T02:57:24.399Z,11.50
2022-12-17T03:00:10.788Z,9.97
2022-12-17T03:02:56.046Z,14.53
2022-12-17T03:05:45.589Z,10.13
2022-12-17T03:08:31.908Z,10.27
2022-12-17T03:11:17.173Z,9.30
2022-12-17T03:14:02.772Z,9.93
2022-12-17T03:16:49.632Z,13.03
2022-12-17T03:19:35.690Z,12.17
2022-12-17T03:22:23.934Z,12.53
2022-12-17T03:25:09.607Z,12.33
2022-12-17T03:27:54.803Z,11.10
2022-12-17T03:30:44.364Z,10.17
2022-12-17T03:33:34.347Z,10.93
2022-12-17T03:36:19.942Z,13.43
2022-12-17T03:39:05.218Z,13.23
2022-12-17T03:41:50.413Z,10.67
2022-12-17T03:44:35.867Z,11.00
2022-12-17T03:47:21.223Z,11.57
2022-12-17T03:50:08.379Z,11.03
2022-12-17T03:52:53.668Z,10.80
2022-12-17T03:55:39.132Z,10.43
2022-12-17T03:58:24.621Z,9.70
2022-12-17T04:01:10.762Z,9.17
2022-12-17T04:03:56.225Z,7.50
2022-12-17T04:06:42.949Z,9.40
2022-12-17T04:09:28.345Z,10.77
2022-12-17T04:12:19.085Z,8.17
2022-12-17T04:15:04.053Z,9.67
2022-12-17T04:17:49.204Z,10.27
2022-12-17T04:20:34.860Z,8.97
2022-12-17T04:23:21.636Z,9.30
2022-12-17T04:26:09.457Z,9.07
2022-12-17T04:28:54.758Z,9.97
2022-12-17T04:31:40.698Z,9.70
2022-12-17T04:34:25.776Z,12.47
2022-12-17T04:37:10.900Z,10.73
2022-12-17T04:39:57.273Z,8.77
2022-12-17T04:42:42.819Z,9.80
2022-12-17T04:45:29.285Z,12.33
2022-12-17T04:48:20.068Z,8.80
2022-12-17T04:51:05.649Z,8.37
2022-12-17T04:53:50.816Z,10.23
2022-12-17T04:56:38.612Z,8.23
2022-12-17T04:59:24.603Z,9.03
2022-12-17T05:02:10.532Z,9.27
2022-12-17T05:04:56.362Z,8.67
2022-12-17T05:07:41.614Z,9.30
2022-12-17T05:10:28.012Z,9.53
2022-12-17T05:13:18.735Z,9.90
2022-12-17T05:16:04.403Z,8.40
2022-12-17T05:18:49.964Z,9.20
2022-12-17T05:21:35.680Z,12.50
2022-12-17T05:24:21.075Z,12.83
2022-12-17T05:27:06.374Z,10.70
2022-12-17T05:29:53.114Z,14.97
2022-12-17T05:32:39.084Z,14.63
2022-12-17T05:35:26.261Z,16.33
2022-12-17T05:38:11.347Z,14.27
2022-12-17T05:40:56.606Z,9.50
2022-12-17T05:43:41.790Z,7.23
2022-12-17T05:46:29.089Z,7.57
2022-12-17T05:49:10.972Z,9.83
2022-12-17T05:51:57.204Z,7.83
2022-12-17T05:54:42.295Z,7.37
2022-12-17T05:57:28.315Z,8.47
2022-12-17T06:00:13.410Z,7.20
2022-12-17T06:03:00.823Z,7.27
2022-12-17T06:05:46.578Z,8.57
2022-12-17T06:08:31.794Z,9.00
2022-12-17T06:11:18.889Z,7.30
2022-12-17T06:14:05.686Z,9.20
2022-12-17T06:16:51.771Z,8.63
2022-12-17T06:19:38.056Z,7.53
2022-12-17T06:22:24.082Z,8.27
2022-12-17T06:25:09.143Z,11.03
2022-12-17T06:27:55.544Z,7.13
2022-12-17T06:30:40.979Z,6.37
2022-12-17T06:33:28.833Z,7.43
2022-12-17T06:36:22.166Z,8.73
2022-12-17T06:39:07.880Z,8.33
2022-12-17T06:42:04.380Z,8.43
2022-12-17T06:44:50.097Z,10.57
2022-12-17T06:47:35.799Z,11.23
2022-12-17T06:50:20.895Z,12.37
2022-12-17T06:53:17.237Z,12.80
2022-12-17T06:56:02.466Z,12.60
2022-12-17T06:58:49.166Z,12.45
2022-12-17T07:01:36.932Z,12.48
2022-12-17T07:04:22.269Z,10.35
2022-12-17T07:07:07.684Z,15.48
2022-12-17T07:09:54.311Z,14.00
2022-12-17T07:12:39.893Z,11.82
2022-12-17T07:15:25.890Z,14.88
2022-12-17T07:18:15.456Z,15.52
2022-12-17T07:21:01.063Z,14.02
2022-12-17T07:23:46.849Z,12.98
2022-12-17T07:26:33.813Z,13.40
2022-12-17T07:29:19.651Z,16.83
2022-12-17T07:32:05.260Z,16.70
2022-12-17T07:34:50.571Z,21.58
2022-12-17T07:37:36.417Z,19.65
2022-12-17T07:40:21.979Z,20.58
2022-12-17T07:43:08.653Z,20.13
2022-12-17T07:45:54.077Z,19.90
2022-12-17T07:48:39.587Z,15.60
2022-12-17T07:51:24.803Z,14.48
2022-12-17T07:54:10.060Z,15.93
2022-12-17T07:56:55.764Z,14.20
2022-12-17T07:59:43.065Z,14.00
2022-12-17T08:02:28.691Z,10.37
2022-12-17T08:05:14.376Z,13.73
2022-12-17T08:07:59.649Z,13.90
2022-12-17T08:10:44.948Z,10.27
2022-12-17T08:13:30.478Z,10.80
2022-12-17T08:16:17.251Z,10.37
2022-12-17T08:19:02.864Z,8.85
2022-12-17T08:21:48.210Z,9.67
2022-12-17T08:24:33.372Z,9.57
2022-12-17T08:27:18.657Z,8.40
2022-12-17T08:30:04.866Z,10.43
2022-12-17T08:32:51.875Z,13.93
2022-12-17T08:35:37.370Z,13.23
2022-12-17T08:38:25.127Z,11.53
2022-12-17T08:41:10.345Z,11.60
2022-12-17T08:43:56.352Z,13.37
2022-12-17T08:46:41.486Z,11.63
2022-12-17T08:49:36.666Z,13.10
2022-12-17T08:52:22.227Z,11.17
2022-12-17T08:55:07.763Z,10.57
2022-12-17T08:57:53.047Z,11.10
2022-12-17T09:00:38.969Z,10.53
2022-12-17T09:03:25.440Z,10.33
2022-12-17T09:06:26.687Z,10.93
2022-12-17T09:09:12.463Z,11.17
2022-12-17T09:11:54.072Z,11.13
2022-12-17T09:14:39.705Z,10.17
2022-12-17T09:17:24.828Z,16.00
2022-12-17T09:20:10.056Z,19.67
2022-12-17T09:22:57.262Z,16.43
2022-12-17T09:25:43.285Z,15.93
2022-12-17T09:28:28.807Z,15.70
2022-12-17T09:31:17.249Z,13.63
2022-12-17T09:34:03.861Z,13.97
2022-12-17T09:36:51.312Z,15.87
2022-12-17T09:39:39.288Z,17.20
2022-12-17T09:42:33.179Z,14.43
2022-12-17T09:45:37.587Z,16.73
2022-12-17T09:48:32.630Z,14.93
2022-12-17T09:51:18.408Z,15.33
2022-12-17T09:54:20.590Z,14.67
2022-12-17T09:57:07.544Z,16.23
2022-12-17T09:59:54.802Z,14.87
2022-12-17T10:02:44.271Z,18.93
2022-12-17T10:05:33.647Z,20.40
2022-12-17T10:08:19.845Z,19.70
2022-12-17T10:11:05.853Z,21.00
2022-12-17T10:13:52.675Z,19.10
2022-12-17T10:16:44.524Z,19.67
2022-12-17T10:19:36.165Z,19.63
2022-12-17T10:22:30.086Z,18.90
2022-12-17T10:25:15.338Z,15.10
2022-12-17T10:28:00.800Z,12.13
2022-12-17T10:30:48.286Z,12.30
2022-12-17T10:33:38.206Z,11.93
2022-12-17T10:36:37.542Z,14.90
2022-12-17T10:39:23.843Z,18.23
2022-12-17T10:42:09.188Z,18.17
2022-12-17T10:44:56.703Z,20.00
2022-12-17T10:47:45.362Z,21.43
2022-12-17T10:50:33.734Z,20.67
2022-12-17T10:53:20.155Z,22.37
2022-12-17T10:56:13.633Z,19.87
2022-12-17T10:59:03.287Z,17.87
2022-12-17T11:01:49.478Z,18.20
2022-12-17T11:04:44.938Z,17.60
2022-12-17T11:07:36.636Z,21.83
2022-12-17T11:10:24.576Z,18.77
2022-12-17T11:13:14.025Z,18.63
2022-12-17T11:16:02.975Z,17.10
2022-12-17T11:18:55.333Z,17.10
2022-12-17T11:21:45.336Z,18.67
2022-12-17T11:24:35.343Z,17.40
2022-12-17T11:27:26.412Z,16.20
2022-12-17T11:30:11.965Z,17.10
2022-12-17T11:33:19.197Z,15.80
2022-12-17T11:36:10.733Z,16.37
2022-12-17T11:38:59.855Z,18.03
2022-12-17T11:41:53.748Z,16.33
2022-12-17T11:44:51.975Z,14.37
2022-12-17T11:47:47.026Z,15.87
2022-12-17T11:50:44.410Z,15.57
2022-12-17T11:53:41.342Z,14.27
2022-12-17T11:56:40.716Z,13.67
2022-12-17T11:59:35.473Z,14.90
2022-12-17T12:02:30.445Z,14.20
2022-12-17T12:05:36.545Z,12.40
2022-12-17T12:08:33.512Z,13.13
2022-12-17T12:11:31.944Z,15.97
2022-12-17T12:14:28.246Z,13.33
2022-12-17T12:17:25.369Z,13.20
2022-12-17T12:20:23.482Z,15.57
2022-12-17T12:23:19.147Z,14.63
2022-12-17T12:26:20.410Z,14.63
2022-12-17T12:29:10.649Z,13.13
2022-12-17T12:32:04.509Z,15.83
2022-12-17T12:34:53.741Z,13.30
2022-12-17T12:37:40.225Z,16.77
2022-12-17T12:40:34.117Z,13.67
2022-12-17T12:43:23.512Z,13.80
2022-12-17T12:46:16.060Z,15.33
2022-12-17T12:49:08.585Z,12.67
2022-12-17T12:51:55.901Z,15.27
2022-12-17T12:54:47.527Z,13.23
2022-12-17T12:57:47.324Z,15.50
2022-12-17T13:00:48.531Z,13.93
2022-12-17T13:03:40.250Z,14.30
2022-12-17T13:06:09.797Z,14.93
2022-12-17T13:08:37.974Z,14.47
2022-12-17T13:11:28.397Z,15.87
2022-12-17T13:14:02.030Z,16.97
2022-12-17T13:16:40.451Z,14.73
2022-12-17T13:19:20.845Z,13.63
2022-12-17T13:21:50.170Z,14.83
2022-12-17T13:24:25.902Z,18.20
2022-12-17T13:26:54.615Z,17.67
2022-12-17T13:29:28.130Z,16.90
2022-12-17T13:32:05.014Z,16.97
2022-12-17T13:34:44.671Z,18.67
2022-12-17T13:37:27.531Z,16.20
2022-12-17T13:40:04.576Z,14.57
2022-12-17T13:42:36.089Z,14.57
2022-12-17T13:45:04.353Z,15.57
2022-12-17T13:47:34.546Z,14.73
2022-12-17T13:50:33.364Z,14.50
2022-12-17T13:52:55.724Z,15.40
2022-12-17T13:55:26.362Z,16.53
2022-12-17T13:57:55.825Z,16.43
2022-12-17T14:00:26.212Z,17.73
2022-12-17T14:02:54.756Z,17.57
2022-12-17T14:05:26.342Z,19.13
2022-12-17T14:07:58.821Z,17.27
2022-12-17T14:10:27.132Z,16.93
2022-12-17T14:13:04.348Z,18.63
2022-12-17T14:15:33.237Z,18.30
2022-12-17T14:18:01.640Z,19.73
2022-12-17T14:20:31.945Z,14.90
2022-12-17T14:23:05.580Z,17.37
2022-12-17T14:25:36.539Z,18.27
2022-12-17T14:28:06.750Z,17.67
2022-12-17T14:30:40.508Z,18.27
2022-12-17T14:33:27.658Z,15.17
2022-12-17T14:36:00.697Z,17.57
2022-12-17T14:38:38.494Z,17.73
2022-12-17T14:41:30.844Z,14.73
2022-12-17T14:44:01.095Z,16.70
2022-12-17T14:46:29.681Z,18.87
2022-12-17T14:49:02.084Z,16.57
2022-12-17T14:51:32.665Z,17.30
2022-12-17T14:54:18.680Z,15.63
2022-12-17T14:56:48.007Z,16.67
2022-12-17T14:59:26.966Z,16.20
2022-12-17T15:01:56.312Z,16.23
2022-12-17T15:04:24.997Z,12.70
2022-12-17T15:06:56.105Z,19.30
2022-12-17T15:09:25.603Z,17.33
2022-12-17T15:11:53.655Z,15.97
2022-12-17T15:14:23.260Z,18.43
2022-12-17T15:16:50.963Z,18.30
2022-12-17T15:19:19.160Z,16.60
2022-12-17T15:21:46.910Z,15.73
2022-12-17T15:24:18.684Z,19.40
2022-12-17T15:26:48.388Z,15.50
2022-12-17T15:29:16.398Z,14.93
2022-12-17T15:31:44.101Z,16.53
2022-12-17T15:34:13.154Z,15.10
2022-12-17T15:36:40.795Z,13.00
2022-12-17T15:39:09.554Z,15.57
2022-12-17T15:41:55.126Z,14.97
2022-12-17T15:44:24.704Z,15.20
2022-12-17T15:46:52.350Z,14.40
2022-12-17T15:49:21.166Z,15.30
2022-12-17T15:51:49.224Z,14.43
2022-12-17T15:54:16.894Z,19.03
2022-12-17T15:56:53.648Z,16.70
2022-12-17T15:59:21.328Z,15.43
2022-12-17T16:01:50.667Z,16.20
2022-12-17T16:04:24.703Z,19.13
2022-12-17T16:06:53.091Z,18.70
2022-12-17T16:09:24.321Z,15.47
2022-12-17T16:11:54.085Z,18.73
2022-12-17T16:14:22.802Z,22.10
2022-12-17T16:16:52.431Z,18.50
2022-12-17T16:19:20.395Z,18.70
2022-12-17T16:21:48.025Z,19.83
2022-12-17T16:24:16.315Z,17.93
2022-12-17T16:26:43.953Z,20.53
2022-12-17T16:29:11.936Z,20.37
2022-12-17T16:31:39.788Z,22.37
2022-12-17T16:34:11.720Z,24.97
2022-12-17T16:36:39.435Z,23.07
2022-12-17T16:39:07.575Z,19.77
2022-12-17T16:41:35.502Z,20.00
2022-12-17T16:44:04.163Z,19.73
2022-12-17T16:46:33.825Z,18.93
2022-12-17T16:49:06.348Z,20.23
2022-12-17T16:51:36.153Z,21.23
2022-12-17T16:54:06.472Z,21.60
2022-12-17T16:56:39.620Z,18.67
2022-12-17T16:59:08.574Z,23.07
2022-12-17T17:01:37.917Z,26.87
2022-12-17T17:04:06.424Z,25.23
2022-12-17T17:06:39.531Z,25.43
2022-12-17T17:09:07.724Z,24.10
2022-12-17T17:11:35.745Z,24.63
2022-12-17T17:14:04.861Z,22.90
2022-12-17T17:16:34.193Z,24.27
2022-12-17T17:19:03.160Z,25.53
2022-12-17T17:21:34.189Z,27.07
2022-12-17T17:24:06.969Z,30.57
2022-12-17T17:26:36.007Z,31.27
2022-12-17T17:29:04.596Z,33.97
2022-12-17T17:32:08.241Z,28.10
2022-12-17T17:34:21.274Z,29.53
2022-12-17T17:36:49.578Z,28.20
2022-12-17T17:39:18.689Z,30.27
2022-12-17T17:41:46.611Z,29.17
2022-12-17T17:44:15.038Z,28.50
2022-12-17T17:46:43.660Z,29.17
2022-12-17T17:49:12.518Z,27.00
2022-12-17T17:54:32.397Z,31.87
2022-12-17T17:57:00.161Z,29.50
2022-12-17T17:59:33.300Z,27.83
2022-12-17T18:02:03.011Z,28.97
2022-12-17T18:04:31.116Z,28.33
2022-12-17T18:09:48.566Z,32.37
2022-12-17T18:12:35.162Z,28.60
2022-12-17T18:15:14.210Z,26.10
2022-12-17T18:17:42.823Z,25.57
2022-12-17T18:20:11.920Z,28.40
2022-12-17T18:22:39.548Z,25.43
2022-12-17T18:25:09.334Z,29.70
2022-12-17T18:27:37.098Z,29.10
2022-12-17T18:30:05.334Z,27.13
2022-12-17T18:32:33.208Z,32.27
2022-12-17T18:35:00.854Z,29.50
2022-12-17T18:37:29.202Z,26.63
2022-12-17T18:39:56.824Z,32.83
2022-12-17T18:42:44.114Z,35.03
2022-12-17T18:45:13.147Z,32.23
2022-12-17T18:47:42.441Z,30.50
2022-12-17T18:50:10.950Z,27.47
2022-12-17T18:52:39.273Z,33.00
2022-12-17T18:55:08.592Z,32.63
2022-12-17T18:57:37.901Z,32.70
2022-12-17T19:00:06.952Z,31.30
2022-12-17T19:02:35.305Z,29.03
2022-12-17T19:05:03.040Z,26.80
2022-12-17T19:07:30.777Z,30.17
2022-12-17T19:09:58.399Z,30.27
2022-12-17T19:12:26.133Z,28.20
2022-12-17T19:14:55.093Z,28.00
2022-12-17T19:17:22.966Z,33.83
2022-12-17T19:19:50.760Z,31.27
2022-12-17T19:22:18.666Z,25.97
2022-12-17T19:24:46.706Z,20.47
2022-12-17T19:27:14.400Z,24.03
2022-12-17T19:29:46.221Z,23.27
2022-12-17T19:32:18.430Z,22.93
2022-12-17T19:34:46.039Z,23.83
2022-12-17T19:37:13.911Z,22.30
2022-12-17T19:39:41.557Z,22.27
2022-12-17T19:42:24.425Z,20.33
2022-12-17T19:44:53.480Z,25.30
2022-12-17T19:47:24.112Z,21.63
2022-12-17T19:49:51.829Z,23.10
2022-12-17T19:52:19.935Z,24.27
2022-12-17T19:54:49.570Z,21.20
2022-12-17T19:57:17.555Z,19.90
2022-12-17T19:59:45.176Z,23.77
2022-12-17T20:02:13.345Z,21.13
2022-12-17T20:04:42.443Z,21.03
2022-12-17T20:07:10.053Z,22.33
2022-12-17T20:09:38.043Z,24.87
2022-12-17T20:12:06.223Z,23.53
2022-12-17T20:14:35.260Z,23.63
2022-12-17T20:17:04.927Z,21.37
2022-12-17T20:19:34.882Z,26.87
2022-12-17T20:22:05.805Z,21.37
2022-12-17T20:24:34.009Z,21.27
2022-12-17T20:27:02.241Z,23.30
2022-12-17T20:29:30.519Z,23.80
2022-12-17T20:31:58.404Z,21.63
2022-12-17T20:34:26.584Z,23.50
2022-12-17T20:36:54.757Z,26.13
2022-12-17T20:39:27.693Z,24.30
2022-12-17T20:41:56.391Z,24.10
2022-12-17T20:44:24.424Z,22.90
2022-12-17T20:46:52.040Z,24.77
2022-12-17T20:49:20.255Z,22.10
2022-12-17T20:51:47.986Z,21.90
2022-12-17T20:54:15.804Z,20.73
2022-12-17T20:56:44.787Z,20.33
2022-12-17T20:59:16.427Z,21.17
2022-12-17T21:01:45.017Z,19.97
2022-12-17T21:04:14.395Z,18.40
2022-12-17T21:06:44.451Z,19.73
2022-12-17T21:09:13.444Z,18.43
2022-12-17T21:11:44.085Z,16.13
2022-12-17T21:14:14.965Z,13.30
2022-12-17T21:16:44.295Z,15.53
2022-12-17T21:19:15.421Z,14.40
2022-12-17T21:21:43.168Z,11.43
2022-12-17T21:24:11.172Z,13.13
2022-12-17T21:26:40.973Z,14.53
2022-12-17T21:29:11.375Z,14.27
2022-12-17T21:31:41.202Z,13.23
2022-12-17T21:34:12.780Z,15.00
2022-12-17T21:36:41.086Z,13.00
2022-12-17T21:39:10.325Z,11.50
2022-12-17T21:41:44.587Z,13.20
2022-12-17T21:44:15.843Z,12.50
2022-12-17T21:46:45.590Z,14.80
2022-12-17T21:49:18.561Z,16.93
2022-12-17T21:51:46.428Z,14.77
2022-12-17T21:54:19.323Z,14.13
2022-12-17T21:56:47.822Z,14.67
2022-12-17T21:59:17.784Z,12.67
2022-12-17T22:01:45.601Z,12.27
2022-12-17T22:04:13.741Z,12.03
2022-12-17T22:06:48.750Z,12.57
2022-12-17T22:09:26.828Z,11.00
2022-12-17T22:12:28.747Z,10.90
2022-12-17T22:14:58.075Z,13.83
2022-12-17T22:17:26.303Z,12.43
2022-12-17T22:19:54.515Z,12.77
2022-12-17T22:22:22.156Z,13.80
2022-12-17T22:24:50.307Z,15.03
2022-12-17T22:27:18.053Z,11.30
2022-12-17T22:30:03.931Z,11.33
2022-12-17T22:32:50.616Z,12.57
2022-12-17T22:36:11.136Z,12.30
2022-12-17T22:42:13.063Z,12.03
2022-12-17T22:44:42.607Z,11.57
2022-12-17T22:44:45.245Z,13.63
2022-12-17T22:46:40.371Z,14.37
2022-12-17T22:49:09.651Z,14.23
2022-12-17T22:51:39.161Z,13.30
2022-12-17T22:54:08.943Z,13.93
2022-12-17T22:57:18.395Z,13.67
2022-12-17T22:59:26.548Z,12.23
2022-12-17T23:01:54.615Z,14.23
2022-12-17T23:04:23.925Z,13.20
2022-12-17T23:06:51.864Z,13.53
2022-12-17T23:09:20.728Z,13.33
2022-12-17T23:11:50.228Z,12.17
2022-12-17T23:14:18.649Z,12.17
2022-12-17T23:16:47.167Z,16.57
2022-12-17T23:19:14.860Z,13.93
2022-12-17T23:21:44.334Z,13.10
2022-12-17T23:24:11.965Z,13.13
2022-12-17T23:26:40.811Z,13.03
2022-12-17T23:29:14.884Z,11.13
2022-12-17T23:31:45.295Z,13.43
2022-12-17T23:34:12.985Z,11.07
2022-12-17T23:36:40.886Z,12.77
2022-12-17T23:39:10.185Z,12.80
2022-12-17T23:41:38.285Z,14.17
2022-12-17T23:44:06.162Z,12.53
2022-12-17T23:46:34.799Z,13.97
2022-12-17T23:49:06.012Z,11.63
2022-12-17T23:51:34.376Z,15.43
2022-12-17T23:54:02.014Z,15.27
2022-12-17T23:56:31.420Z,14.10
2022-12-17T23:59:01.700Z,14.33
